Observations for NASHVILLE METRO, TN (BNA)

KBNA 250153Z 00000KT 10SM SCT046 18/13 A2977 RMK AO2 SLP078 T01780133   
KBNA 250053Z 00000KT 10SM BKN043 18/13 A2977 RMK AO2 SLP077 T01830128   
KBNA 242353Z 11003KT 10SM BKN043 19/12 A2977 RMK AO2 SLP079 T01890122 10211 20172 58009 
KBNA 242253Z 04004KT 10SM OVC044 20/13 A2978 RMK AO2 SLP081 T02000128   
KBNA 242153Z 03006KT 10SM BKN034 OVC042 19/12 A2980 RMK AO2 SLP088 T01940122
KBNA 242053Z 00000KT 10SM SCT028 OVC042 21/13 A2980 RMK AO2 SLP087 T02060128 58014  
KBNA 242015Z 32004KT 10SM SCT025 BKN045 21/13 A2982 RMK AO2 T02060128
KBNA 241953Z 33006KT 10SM BKN025 19/13 A2983 RMK AO2 SLP097 T01940128   
KBNA 241853Z 32006KT 10SM OVC024 18/12 A2984 RMK AO2 SLP100 T01780122   
KBNA 241753Z 33003KT 10SM OVC027 18/12 A2984 RMK AO2 SLP102 T01830122 10194 20128 58009 
KBNA 241653Z 36009G15KT 10SM BKN021 BKN028 19/13 A2985 RMK AO2 SLP106 T01890128 
KBNA 241553Z 35004KT 10SM FEW012 BKN018 BKN150 17/12 A2986 RMK AO2 SLP108 T01670117 
KBNA 241453Z 01007KT 10SM OVC010 14/12 A2987 RMK AO2 SLP112 T01440117 51005 
KBNA 241353Z 35006KT 9SM OVC009 13/12 A2986 RMK AO2 SLP109 T01330117
KBNA 241253Z 34006KT 10SM OVC009 13/11 A2985 RMK AO2 SLP107 T01280111 $ 
KBNA 241212Z 33007KT 10SM OVC009 13/11 A2985
KBNA 241212Z 33007KT 10SM OVC009 13/11 A2985 RMK AO2 T01280111 $
KBNA 241153Z 34003KT 10SM OVC010 13/11 A2985 RMK AO2 SLP106 70101 T01280111 10133 20117 53012 $ 
KBNA 241053Z 01007KT 10SM OVC010 13/11 A2983 RMK AO2 SLP098 T01280111 $ 
KBNA 240953Z 01007KT 10SM OVC008 13/11 A2981 RMK AO2 SLP094 T01280111 $ 
KBNA 240853Z 04007KT 10SM OVC008 12/11 A2981 RMK AO2 SLP095 T01220111 55009 $   
KBNA 240753Z 02007KT 10SM OVC009 12/11 A2981 RMK AO2 SLP092 T01220111 $ 
KBNA 240726Z 07006KT 10SM OVC010 12/11 A2981 RMK AO2 T01220111 $
KBNA 240705Z 05005KT 10SM OVC009 12/11 A2982 RMK AO2 T01220106 $
KBNA 240653Z 02005KT 10SM OVC010 12/11 A2983 RMK AO2 SLP099 T01220106 $ 
KBNA 240553Z 36008KT 10SM BKN013 OVC075 12/11 A2984 RMK AO2 SLP105 60040 T01170106 10117 20117 401170100 58006 $
KBNA 240453Z 01007KT 10SM BKN014 OVC027 12/10 A2986 RMK AO2 SLP110 T01170100 $  
KBNA 240449Z 02007KT 10SM BKN014 OVC027 12/10 A2986 RMK AO2 $
KBNA 240353Z 01008KT 10SM OVC017 12/10 A2986 RMK AO2 SLP111 T01170100 $ 
KBNA 240338Z 01009KT 10SM OVC015 12/10 A2986 RMK AO2 T01170100 $
KBNA 240253Z 36012G20KT 10SM FEW008 BKN014 OVC020 12/10 A2987 RMK AO2 RAE31 SLP115 P0003 60040 T01170100 51009 $
KBNA 240153Z 36013KT 5SM -RA BR SCT008 BKN014 OVC029 12/10 A2987 RMK AO2 SLP113 P0019 T01170100 $